sensor_id;sensor_type;location;lat;lon;timestamp;pressure;altitude;pressure_sealevel;temperature;humidity
72336;BME280;65062;48.446;8.834;2023-03-14T00:00:49;95897.78;;;9.09;93.58
72336;BME280;65062;48.446;8.834;2023-03-14T00:03:50;95927.06;;;9.11;93.71
72336;BME280;65062;48.446;8.834;2023-03-14T00:06:50;95936.56;;;9.05;92.74
72336;BME280;65062;48.446;8.834;2023-03-14T00:09:51;95926.28;;;9.10;89.76
72336;BME280;65062;48.446;8.834;2023-03-14T00:12:51;95936.13;;;9.08;90.74
72336;BME280;65062;48.446;8.834;2023-03-14T00:15:52;95934.63;;;8.94;91.16
72336;BME280;65062;48.446;8.834;2023-03-14T00:18:52;95948.78;;;8.80;92.38
72336;BME280;65062;48.446;8.834;2023-03-14T00:21:52;95947.84;;;8.75;92.53
72336;BME280;65062;48.446;8.834;2023-03-14T00:24:53;95953.16;;;8.86;93.37
72336;BME280;65062;48.446;8.834;2023-03-14T00:27:53;95944.47;;;8.68;93.92
72336;BME280;65062;48.446;8.834;2023-03-14T00:30:54;95951.50;;;8.67;93.59
72336;BME280;65062;48.446;8.834;2023-03-14T00:33:54;95953.50;;;8.65;94.51
72336;BME280;65062;48.446;8.834;2023-03-14T00:36:54;95965.97;;;8.63;94.56
72336;BME280;65062;48.446;8.834;2023-03-14T00:39:55;95975.69;;;8.81;93.63
72336;BME280;65062;48.446;8.834;2023-03-14T00:42:55;95963.31;;;8.94;90.51
72336;BME280;65062;48.446;8.834;2023-03-14T00:45:56;95980.22;;;8.92;90.05
72336;BME280;65062;48.446;8.834;2023-03-14T00:48:57;95990.94;;;8.77;91.62
72336;BME280;65062;48.446;8.834;2023-03-14T00:51:57;95988.41;;;8.95;90.50
72336;BME280;65062;48.446;8.834;2023-03-14T00:54:58;95990.09;;;8.83;91.02
72336;BME280;65062;48.446;8.834;2023-03-14T00:57:58;95990.91;;;8.84;91.76
72336;BME280;65062;48.446;8.834;2023-03-14T01:00:58;95983.31;;;8.82;92.56
72336;BME280;65062;48.446;8.834;2023-03-14T01:03:59;95985.72;;;9.08;89.44
72336;BME280;65062;48.446;8.834;2023-03-14T01:06:59;95982.66;;;8.87;90.23
72336;BME280;65062;48.446;8.834;2023-03-14T01:09:59;95967.00;;;8.87;91.73
72336;BME280;65062;48.446;8.834;2023-03-14T01:13:00;95957.53;;;8.92;91.05
72336;BME280;65062;48.446;8.834;2023-03-14T01:16:05;95937.03;;;8.96;89.13
72336;BME280;65062;48.446;8.834;2023-03-14T01:19:06;95926.78;;;8.94;89.49
72336;BME280;65062;48.446;8.834;2023-03-14T01:22:07;95928.72;;;9.05;88.14
72336;BME280;65062;48.446;8.834;2023-03-14T01:25:09;95938.78;;;9.02;89.35
72336;BME280;65062;48.446;8.834;2023-03-14T01:28:10;95921.28;;;9.09;87.50
72336;BME280;65062;48.446;8.834;2023-03-14T01:31:11;95913.88;;;9.06;87.43
72336;BME280;65062;48.446;8.834;2023-03-14T01:34:12;95910.06;;;9.02;88.06
72336;BME280;65062;48.446;8.834;2023-03-14T01:37:12;95916.41;;;9.12;85.72
72336;BME280;65062;48.446;8.834;2023-03-14T01:40:12;95910.50;;;8.99;87.85
72336;BME280;65062;48.446;8.834;2023-03-14T01:43:18;95891.88;;;8.95;86.82
72336;BME280;65062;48.446;8.834;2023-03-14T01:46:30;95899.84;;;9.00;87.35
72336;BME280;65062;48.446;8.834;2023-03-14T01:49:35;95909.66;;;9.05;86.85
72336;BME280;65062;48.446;8.834;2023-03-14T01:52:47;95907.91;;;8.99;86.54
72336;BME280;65062;48.446;8.834;2023-03-14T01:55:54;95905.03;;;9.07;85.84
72336;BME280;65062;48.446;8.834;2023-03-14T01:58:58;95908.06;;;9.04;86.30
72336;BME280;65062;48.446;8.834;2023-03-14T02:01:59;95902.69;;;8.99;86.37
72336;BME280;65062;48.446;8.834;2023-03-14T02:05:02;95898.16;;;8.88;87.56
72336;BME280;65062;48.446;8.834;2023-03-14T02:08:06;95888.00;;;9.04;86.10
72336;BME280;65062;48.446;8.834;2023-03-14T02:11:09;95881.81;;;8.99;86.27
72336;BME280;65062;48.446;8.834;2023-03-14T02:14:17;95867.34;;;9.03;86.50
72336;BME280;65062;48.446;8.834;2023-03-14T02:17:22;95857.25;;;9.06;84.84
72336;BME280;65062;48.446;8.834;2023-03-14T02:23:50;95859.28;;;9.04;85.32
72336;BME280;65062;48.446;8.834;2023-03-14T02:30:11;95853.50;;;8.78;87.30
72336;BME280;65062;48.446;8.834;2023-03-14T02:33:14;95841.94;;;8.92;84.34
72336;BME280;65062;48.446;8.834;2023-03-14T02:36:17;95859.78;;;8.95;84.28
72336;BME280;65062;48.446;8.834;2023-03-14T02:39:41;95847.31;;;8.72;85.79
72336;BME280;65062;48.446;8.834;2023-03-14T02:42:44;95847.06;;;8.80;84.26
72336;BME280;65062;48.446;8.834;2023-03-14T02:45:46;95834.19;;;8.85;84.29
72336;BME280;65062;48.446;8.834;2023-03-14T02:49:00;95825.50;;;8.67;85.75
72336;BME280;65062;48.446;8.834;2023-03-14T02:52:01;95834.81;;;8.56;85.96
72336;BME280;65062;48.446;8.834;2023-03-14T02:55:02;95833.34;;;8.42;86.79
72336;BME280;65062;48.446;8.834;2023-03-14T02:58:03;95829.56;;;8.38;87.83
72336;BME280;65062;48.446;8.834;2023-03-14T03:01:04;95826.75;;;8.39;88.25
72336;BME280;65062;48.446;8.834;2023-03-14T03:04:04;95804.38;;;8.25;88.08
72336;BME280;65062;48.446;8.834;2023-03-14T03:07:05;95800.41;;;8.23;87.61
72336;BME280;65062;48.446;8.834;2023-03-14T03:10:05;95803.00;;;8.16;88.71
72336;BME280;65062;48.446;8.834;2023-03-14T03:13:06;95809.13;;;8.04;88.35
72336;BME280;65062;48.446;8.834;2023-03-14T03:16:06;95799.28;;;8.06;89.57
72336;BME280;65062;48.446;8.834;2023-03-14T03:19:07;95787.56;;;7.90;90.33
72336;BME280;65062;48.446;8.834;2023-03-14T03:22:07;95789.16;;;7.91;89.69
72336;BME280;65062;48.446;8.834;2023-03-14T03:25:08;95785.13;;;7.64;90.02
72336;BME280;65062;48.446;8.834;2023-03-14T03:28:08;95777.53;;;7.63;90.80
72336;BME280;65062;48.446;8.834;2023-03-14T03:31:10;95774.38;;;7.48;92.13
72336;BME280;65062;48.446;8.834;2023-03-14T03:34:12;95765.34;;;7.57;89.83
72336;BME280;65062;48.446;8.834;2023-03-14T03:37:12;95767.88;;;7.63;91.03
72336;BME280;65062;48.446;8.834;2023-03-14T03:40:12;95758.59;;;7.43;90.78
72336;BME280;65062;48.446;8.834;2023-03-14T03:43:13;95757.63;;;7.37;89.77
72336;BME280;65062;48.446;8.834;2023-03-14T03:46:13;95747.47;;;7.29;90.51
72336;BME280;65062;48.446;8.834;2023-03-14T03:49:14;95746.44;;;7.30;91.34
72336;BME280;65062;48.446;8.834;2023-03-14T03:52:14;95738.09;;;7.15;90.68
72336;BME280;65062;48.446;8.834;2023-03-14T03:55:14;95746.72;;;7.09;91.76
72336;BME280;65062;48.446;8.834;2023-03-14T03:58:15;95751.19;;;6.96;92.44
72336;BME280;65062;48.446;8.834;2023-03-14T04:01:15;95754.31;;;7.11;90.07
72336;BME280;65062;48.446;8.834;2023-03-14T04:04:16;95747.13;;;7.13;90.50
72336;BME280;65062;48.446;8.834;2023-03-14T04:07:16;95764.47;;;7.32;87.96
72336;BME280;65062;48.446;8.834;2023-03-14T04:10:16;95751.09;;;7.22;87.35
72336;BME280;65062;48.446;8.834;2023-03-14T04:13:17;95751.56;;;7.06;88.19
72336;BME280;65062;48.446;8.834;2023-03-14T04:16:20;95749.97;;;6.98;89.12
72336;BME280;65062;48.446;8.834;2023-03-14T04:19:21;95745.34;;;7.00;89.67
72336;BME280;65062;48.446;8.834;2023-03-14T04:22:21;95743.22;;;6.91;90.42
72336;BME280;65062;48.446;8.834;2023-03-14T04:25:22;95747.69;;;7.15;89.41
72336;BME280;65062;48.446;8.834;2023-03-14T04:28:22;95732.41;;;6.94;89.00
72336;BME280;65062;48.446;8.834;2023-03-14T04:31:23;95733.16;;;7.01;89.45
72336;BME280;65062;48.446;8.834;2023-03-14T04:34:23;95724.56;;;7.00;89.50
72336;BME280;65062;48.446;8.834;2023-03-14T04:37:23;95730.78;;;6.99;88.81
72336;BME280;65062;48.446;8.834;2023-03-14T04:40:24;95723.72;;;7.13;86.84
72336;BME280;65062;48.446;8.834;2023-03-14T04:43:25;95712.13;;;7.09;86.07
72336;BME280;65062;48.446;8.834;2023-03-14T04:46:25;95706.25;;;7.26;85.52
72336;BME280;65062;48.446;8.834;2023-03-14T04:49:26;95701.47;;;7.17;85.43
72336;BME280;65062;48.446;8.834;2023-03-14T04:52:26;95700.56;;;7.36;85.38
72336;BME280;65062;48.446;8.834;2023-03-14T04:55:27;95701.31;;;7.49;82.31
72336;BME280;65062;48.446;8.834;2023-03-14T04:58:27;95690.72;;;7.44;83.50
72336;BME280;65062;48.446;8.834;2023-03-14T05:01:28;95680.47;;;7.80;80.44
72336;BME280;65062;48.446;8.834;2023-03-14T05:04:29;95678.06;;;7.79;80.52
72336;BME280;65062;48.446;8.834;2023-03-14T05:07:32;95667.13;;;7.70;82.88
72336;BME280;65062;48.446;8.834;2023-03-14T05:10:33;95666.63;;;7.80;81.67
72336;BME280;65062;48.446;8.834;2023-03-14T05:13:33;95659.78;;;7.85;81.58
72336;BME280;65062;48.446;8.834;2023-03-14T05:16:34;95664.09;;;7.98;79.16
72336;BME280;65062;48.446;8.834;2023-03-14T05:19:35;95658.72;;;7.93;81.19
72336;BME280;65062;48.446;8.834;2023-03-14T05:22:35;95650.66;;;8.01;80.46
72336;BME280;65062;48.446;8.834;2023-03-14T05:25:36;95638.69;;;7.93;80.51
72336;BME280;65062;48.446;8.834;2023-03-14T05:28:36;95633.25;;;7.95;80.30
72336;BME280;65062;48.446;8.834;2023-03-14T05:31:36;95635.66;;;7.96;79.30
72336;BME280;65062;48.446;8.834;2023-03-14T05:34:37;95633.72;;;7.85;80.10
72336;BME280;65062;48.446;8.834;2023-03-14T05:37:37;95625.94;;;7.61;82.30
72336;BME280;65062;48.446;8.834;2023-03-14T05:40:37;95627.44;;;7.75;80.80
72336;BME280;65062;48.446;8.834;2023-03-14T05:43:38;95615.84;;;7.95;79.51
72336;BME280;65062;48.446;8.834;2023-03-14T05:46:39;95622.44;;;7.73;79.98
72336;BME280;65062;48.446;8.834;2023-03-14T05:49:39;95625.50;;;7.64;80.21
72336;BME280;65062;48.446;8.834;2023-03-14T05:52:40;95627.78;;;7.54;82.57
72336;BME280;65062;48.446;8.834;2023-03-14T05:55:40;95614.06;;;7.40;81.24
72336;BME280;65062;48.446;8.834;2023-03-14T05:58:40;95616.94;;;7.32;83.52
72336;BME280;65062;48.446;8.834;2023-03-14T06:01:41;95619.16;;;7.29;83.98
72336;BME280;65062;48.446;8.834;2023-03-14T06:04:41;95615.47;;;7.12;84.85
72336;BME280;65062;48.446;8.834;2023-03-14T06:07:41;95617.50;;;7.10;85.99
72336;BME280;65062;48.446;8.834;2023-03-14T06:10:42;95609.50;;;7.05;87.22
72336;BME280;65062;48.446;8.834;2023-03-14T06:13:42;95608.63;;;6.86;87.65
72336;BME280;65062;48.446;8.834;2023-03-14T06:16:43;95612.88;;;6.74;88.54
72336;BME280;65062;48.446;8.834;2023-03-14T06:19:43;95605.28;;;6.73;88.81
72336;BME280;65062;48.446;8.834;2023-03-14T06:22:43;95604.84;;;6.82;89.17
72336;BME280;65062;48.446;8.834;2023-03-14T06:25:44;95586.88;;;6.74;89.39
72336;BME280;65062;48.446;8.834;2023-03-14T06:28:44;95586.13;;;6.67;89.74
72336;BME280;65062;48.446;8.834;2023-03-14T06:31:45;95582.31;;;6.70;90.09
72336;BME280;65062;48.446;8.834;2023-03-14T06:34:45;95586.75;;;6.56;90.17
72336;BME280;65062;48.446;8.834;2023-03-14T06:37:45;95576.97;;;6.58;90.63
72336;BME280;65062;48.446;8.834;2023-03-14T06:40:46;95581.34;;;6.58;90.53
72336;BME280;65062;48.446;8.834;2023-03-14T06:43:46;95581.19;;;6.53;90.55
72336;BME280;65062;48.446;8.834;2023-03-14T06:46:46;95587.34;;;6.58;90.62
72336;BME280;65062;48.446;8.834;2023-03-14T06:49:47;95587.22;;;6.84;89.03
72336;BME280;65062;48.446;8.834;2023-03-14T06:52:47;95590.03;;;7.14;86.90
72336;BME280;65062;48.446;8.834;2023-03-14T06:55:48;95585.31;;;7.35;85.67
72336;BME280;65062;48.446;8.834;2023-03-14T06:58:48;95583.84;;;7.64;84.04
72336;BME280;65062;48.446;8.834;2023-03-14T07:01:48;95582.66;;;7.84;81.97
72336;BME280;65062;48.446;8.834;2023-03-14T07:04:50;95578.41;;;7.90;81.28
72336;BME280;65062;48.446;8.834;2023-03-14T07:07:51;95581.84;;;8.08;80.69
72336;BME280;65062;48.446;8.834;2023-03-14T07:10:51;95575.22;;;8.30;78.03
72336;BME280;65062;48.446;8.834;2023-03-14T07:13:52;95581.75;;;8.15;80.93
72336;BME280;65062;48.446;8.834;2023-03-14T07:16:52;95575.94;;;8.37;78.82
72336;BME280;65062;48.446;8.834;2023-03-14T07:19:52;95584.25;;;8.28;80.51
72336;BME280;65062;48.446;8.834;2023-03-14T07:22:53;95594.56;;;8.41;79.59
72336;BME280;65062;48.446;8.834;2023-03-14T07:25:54;95592.56;;;8.54;81.07
72336;BME280;65062;48.446;8.834;2023-03-14T07:28:54;95593.56;;;8.72;79.39
72336;BME280;65062;48.446;8.834;2023-03-14T07:31:55;95610.66;;;9.15;78.21
72336;BME280;65062;48.446;8.834;2023-03-14T07:34:55;95613.78;;;9.35;75.53
72336;BME280;65062;48.446;8.834;2023-03-14T07:37:56;95627.34;;;9.55;75.95
72336;BME280;65062;48.446;8.834;2023-03-14T07:41:01;95623.41;;;9.76;75.54
72336;BME280;65062;48.446;8.834;2023-03-14T07:44:02;95627.31;;;10.08;72.10
72336;BME280;65062;48.446;8.834;2023-03-14T07:47:02;95608.53;;;10.22;71.97
72336;BME280;65062;48.446;8.834;2023-03-14T07:50:04;95628.41;;;10.46;69.00
72336;BME280;65062;48.446;8.834;2023-03-14T07:53:05;95614.75;;;10.56;69.84
72336;BME280;65062;48.446;8.834;2023-03-14T07:56:05;95621.63;;;10.85;68.22
72336;BME280;65062;48.446;8.834;2023-03-14T07:59:06;95627.78;;;11.19;63.99
72336;BME280;65062;48.446;8.834;2023-03-14T08:02:10;95630.19;;;11.37;67.59
72336;BME280;65062;48.446;8.834;2023-03-14T08:05:11;95627.81;;;11.35;60.10
72336;BME280;65062;48.446;8.834;2023-03-14T08:08:12;95639.00;;;11.19;64.90
72336;BME280;65062;48.446;8.834;2023-03-14T08:11:12;95647.84;;;11.02;67.11
72336;BME280;65062;48.446;8.834;2023-03-14T08:14:12;95634.09;;;10.95;66.99
72336;BME280;65062;48.446;8.834;2023-03-14T08:17:13;95638.88;;;10.98;66.67
72336;BME280;65062;48.446;8.834;2023-03-14T08:20:13;95642.19;;;10.93;68.42
72336;BME280;65062;48.446;8.834;2023-03-14T08:23:14;95654.59;;;10.98;67.71
72336;BME280;65062;48.446;8.834;2023-03-14T08:26:14;95640.69;;;11.25;60.30
72336;BME280;65062;48.446;8.834;2023-03-14T08:29:15;95651.22;;;11.42;58.88
72336;BME280;65062;48.446;8.834;2023-03-14T08:32:15;95663.78;;;11.56;60.95
72336;BME280;65062;48.446;8.834;2023-03-14T08:35:16;95660.94;;;11.58;62.20
72336;BME280;65062;48.446;8.834;2023-03-14T08:38:16;95663.63;;;11.46;59.60
72336;BME280;65062;48.446;8.834;2023-03-14T08:41:16;95665.25;;;11.36;60.99
72336;BME280;65062;48.446;8.834;2023-03-14T08:44:17;95658.03;;;11.26;59.68
72336;BME280;65062;48.446;8.834;2023-03-14T08:47:17;95669.28;;;11.27;60.32
72336;BME280;65062;48.446;8.834;2023-03-14T08:50:18;95689.81;;;11.18;59.16
72336;BME280;65062;48.446;8.834;2023-03-14T08:53:18;95669.44;;;11.20;60.93
72336;BME280;65062;48.446;8.834;2023-03-14T08:56:21;95679.94;;;11.09;60.70
72336;BME280;65062;48.446;8.834;2023-03-14T08:59:21;95678.34;;;11.08;60.52
72336;BME280;65062;48.446;8.834;2023-03-14T09:02:23;95683.09;;;11.11;62.53
72336;BME280;65062;48.446;8.834;2023-03-14T09:05:24;95678.91;;;11.10;63.71
72336;BME280;65062;48.446;8.834;2023-03-14T09:08:25;95682.22;;;11.05;61.81
72336;BME280;65062;48.446;8.834;2023-03-14T09:11:25;95689.38;;;11.10;63.10
72336;BME280;65062;48.446;8.834;2023-03-14T09:14:26;95687.59;;;11.27;60.83
72336;BME280;65062;48.446;8.834;2023-03-14T09:17:26;95691.44;;;11.36;62.29
72336;BME280;65062;48.446;8.834;2023-03-14T09:20:27;95698.28;;;11.37;61.11
72336;BME280;65062;48.446;8.834;2023-03-14T09:23:27;95700.28;;;11.46;59.43
72336;BME280;65062;48.446;8.834;2023-03-14T09:26:28;95701.09;;;11.47;59.47
72336;BME280;65062;48.446;8.834;2023-03-14T09:29:28;95700.88;;;11.48;60.09
72336;BME280;65062;48.446;8.834;2023-03-14T09:32:30;95706.28;;;11.58;60.62
72336;BME280;65062;48.446;8.834;2023-03-14T09:35:33;95726.41;;;11.69;60.52
72336;BME280;65062;48.446;8.834;2023-03-14T09:38:34;95724.25;;;11.66;58.59
72336;BME280;65062;48.446;8.834;2023-03-14T09:41:37;95723.91;;;11.74;59.47
72336;BME280;65062;48.446;8.834;2023-03-14T09:44:53;95721.22;;;11.86;59.28
72336;BME280;65062;48.446;8.834;2023-03-14T09:47:55;95709.25;;;12.06;59.28
72336;BME280;65062;48.446;8.834;2023-03-14T09:51:00;95743.59;;;12.21;59.37
72336;BME280;65062;48.446;8.834;2023-03-14T09:54:04;95698.50;;;12.08;57.26
72336;BME280;65062;48.446;8.834;2023-03-14T09:57:06;95723.81;;;12.30;59.43
72336;BME280;65062;48.446;8.834;2023-03-14T10:00:21;95699.53;;;12.40;58.87
72336;BME280;65062;48.446;8.834;2023-03-14T10:06:30;95679.44;;;12.84;57.04
72336;BME280;65062;48.446;8.834;2023-03-14T10:09:30;95704.47;;;12.91;57.01
72336;BME280;65062;48.446;8.834;2023-03-14T10:12:36;95690.28;;;12.71;55.74
72336;BME280;65062;48.446;8.834;2023-03-14T10:15:37;95697.50;;;12.63;56.37
72336;BME280;65062;48.446;8.834;2023-03-14T10:18:37;95684.97;;;12.65;58.06
72336;BME280;65062;48.446;8.834;2023-03-14T10:21:50;95691.63;;;12.73;57.42
72336;BME280;65062;48.446;8.834;2023-03-14T10:24:53;95702.13;;;12.73;59.46
72336;BME280;65062;48.446;8.834;2023-03-14T10:27:54;95691.56;;;13.06;58.55
72336;BME280;65062;48.446;8.834;2023-03-14T10:30:56;95685.53;;;12.89;56.61
72336;BME280;65062;48.446;8.834;2023-03-14T10:34:03;95698.88;;;13.26;59.37
72336;BME280;65062;48.446;8.834;2023-03-14T10:37:24;95712.16;;;12.98;58.66
72336;BME280;65062;48.446;8.834;2023-03-14T10:40:30;95698.72;;;12.56;60.45
72336;BME280;65062;48.446;8.834;2023-03-14T10:43:34;95721.81;;;12.04;59.85
72336;BME280;65062;48.446;8.834;2023-03-14T10:46:35;95721.16;;;11.97;63.84
72336;BME280;65062;48.446;8.834;2023-03-14T10:49:36;95734.53;;;11.56;62.56
72336;BME280;65062;48.446;8.834;2023-03-14T10:52:46;95730.69;;;11.47;64.08
72336;BME280;65062;48.446;8.834;2023-03-14T10:55:47;95737.63;;;11.53;64.38
72336;BME280;65062;48.446;8.834;2023-03-14T10:58:49;95757.41;;;11.61;65.33
72336;BME280;65062;48.446;8.834;2023-03-14T11:05:45;95765.28;;;11.61;64.28
72336;BME280;65062;48.446;8.834;2023-03-14T11:09:25;95772.13;;;11.62;65.36
72336;BME280;65062;48.446;8.834;2023-03-14T11:25:47;95794.66;;;10.42;71.68
72336;BME280;65062;48.446;8.834;2023-03-14T11:28:52;95797.59;;;10.46;70.77
72336;BME280;65062;48.446;8.834;2023-03-14T11:31:59;95803.41;;;10.48;71.77
72336;BME280;65062;48.446;8.834;2023-03-14T11:35:05;95799.22;;;10.93;71.16
72336;BME280;65062;48.446;8.834;2023-03-14T11:41:40;95795.56;;;11.17;72.70
72336;BME280;65062;48.446;8.834;2023-03-14T11:44:44;95807.91;;;11.45;70.85
72336;BME280;65062;48.446;8.834;2023-03-14T11:47:53;95808.53;;;11.24;69.24
72336;BME280;65062;48.446;8.834;2023-03-14T11:50:57;95826.06;;;10.89;70.77
72336;BME280;65062;48.446;8.834;2023-03-14T11:54:18;95821.66;;;10.66;73.86
72336;BME280;65062;48.446;8.834;2023-03-14T11:57:21;95840.38;;;10.51;72.54
72336;BME280;65062;48.446;8.834;2023-03-14T12:00:23;95866.22;;;10.18;75.35
72336;BME280;65062;48.446;8.834;2023-03-14T12:03:49;95870.31;;;9.78;79.84
72336;BME280;65062;48.446;8.834;2023-03-14T12:06:56;95907.63;;;9.49;82.58
72336;BME280;65062;48.446;8.834;2023-03-14T12:10:02;95942.94;;;9.34;81.34
72336;BME280;65062;48.446;8.834;2023-03-14T12:13:03;95920.50;;;9.26;79.60
72336;BME280;65062;48.446;8.834;2023-03-14T12:19:28;95928.56;;;8.76;76.10
72336;BME280;65062;48.446;8.834;2023-03-14T12:22:42;95936.00;;;8.72;74.64
72336;BME280;65062;48.446;8.834;2023-03-14T12:25:43;95940.31;;;8.60;75.75
72336;BME280;65062;48.446;8.834;2023-03-14T12:32:12;95956.88;;;11.18;70.42
72336;BME280;65062;48.446;8.834;2023-03-14T12:35:44;95946.78;;;13.91;56.54
72336;BME280;65062;48.446;8.834;2023-03-14T12:39:09;95961.97;;;16.06;52.96
72336;BME280;65062;48.446;8.834;2023-03-14T12:42:38;95986.16;;;17.67;45.18
72336;BME280;65062;48.446;8.834;2023-03-14T12:45:40;95965.44;;;19.88;42.67
72336;BME280;65062;48.446;8.834;2023-03-14T12:48:41;95988.03;;;19.14;40.50
72336;BME280;65062;48.446;8.834;2023-03-14T12:51:42;96002.28;;;17.20;42.12
72336;BME280;65062;48.446;8.834;2023-03-14T12:54:51;96020.56;;;14.60;48.36
72336;BME280;65062;48.446;8.834;2023-03-14T12:58:11;96049.88;;;13.10;49.18
72336;BME280;65062;48.446;8.834;2023-03-14T13:01:18;96056.09;;;11.49;52.93
72336;BME280;65062;48.446;8.834;2023-03-14T13:04:19;96060.25;;;11.16;52.68
72336;BME280;65062;48.446;8.834;2023-03-14T13:10:48;96085.34;;;12.10;52.26
72336;BME280;65062;48.446;8.834;2023-03-14T13:13:56;96083.81;;;12.49;50.08
72336;BME280;65062;48.446;8.834;2023-03-14T13:17:01;96111.13;;;12.36;50.21
72336;BME280;65062;48.446;8.834;2023-03-14T13:20:10;96135.13;;;11.76;49.93
72336;BME280;65062;48.446;8.834;2023-03-14T13:23:29;96149.22;;;11.04;53.33
72336;BME280;65062;48.446;8.834;2023-03-14T13:26:39;96171.53;;;10.34;53.43
72336;BME280;65062;48.446;8.834;2023-03-14T13:29:41;96182.66;;;9.99;55.01
72336;BME280;65062;48.446;8.834;2023-03-14T13:32:42;96178.81;;;9.46;56.08
72336;BME280;65062;48.446;8.834;2023-03-14T13:36:04;96189.63;;;9.18;55.33
72336;BME280;65062;48.446;8.834;2023-03-14T13:39:10;96189.06;;;9.03;57.02
72336;BME280;65062;48.446;8.834;2023-03-14T13:42:14;96224.25;;;8.88;54.87
72336;BME280;65062;48.446;8.834;2023-03-14T13:45:15;96222.47;;;8.75;56.12
72336;BME280;65062;48.446;8.834;2023-03-14T13:48:16;96244.41;;;8.48;56.30
72336;BME280;65062;48.446;8.834;2023-03-14T13:51:18;96223.94;;;8.58;58.13
72336;BME280;65062;48.446;8.834;2023-03-14T13:54:21;96245.50;;;9.04;57.43
72336;BME280;65062;48.446;8.834;2023-03-14T13:57:21;96258.50;;;9.11;57.54
72336;BME280;65062;48.446;8.834;2023-03-14T14:00:25;96247.03;;;9.18;54.87
72336;BME280;65062;48.446;8.834;2023-03-14T14:03:36;96263.97;;;8.96;54.24
72336;BME280;65062;48.446;8.834;2023-03-14T14:06:38;96260.94;;;8.99;56.15
72336;BME280;65062;48.446;8.834;2023-03-14T14:09:51;96268.38;;;9.02;57.46
72336;BME280;65062;48.446;8.834;2023-03-14T14:12:59;96270.38;;;9.07;54.69
72336;BME280;65062;48.446;8.834;2023-03-14T14:16:00;96302.91;;;9.04;55.70
72336;BME280;65062;48.446;8.834;2023-03-14T14:19:03;96295.59;;;9.26;53.60
72336;BME280;65062;48.446;8.834;2023-03-14T14:22:04;96303.38;;;9.39;55.65
72336;BME280;65062;48.446;8.834;2023-03-14T14:25:06;96298.09;;;9.52;53.43
72336;BME280;65062;48.446;8.834;2023-03-14T14:28:23;96322.63;;;9.95;52.70
72336;BME280;65062;48.446;8.834;2023-03-14T14:31:24;96334.63;;;9.65;52.39
72336;BME280;65062;48.446;8.834;2023-03-14T14:34:25;96333.69;;;9.53;52.38
72336;BME280;65062;48.446;8.834;2023-03-14T14:37:29;96326.69;;;9.40;50.79
72336;BME280;65062;48.446;8.834;2023-03-14T14:40:31;96350.22;;;9.27;50.65
72336;BME280;65062;48.446;8.834;2023-03-14T14:43:38;96341.19;;;13.23;43.55
72336;BME280;65062;48.446;8.834;2023-03-14T14:46:39;96348.94;;;15.31;36.04
72336;BME280;65062;48.446;8.834;2023-03-14T14:49:40;96365.28;;;14.95;34.18
72336;BME280;65062;48.446;8.834;2023-03-14T14:52:43;96373.06;;;12.51;41.35
72336;BME280;65062;48.446;8.834;2023-03-14T14:55:43;96351.81;;;11.82;43.06
72336;BME280;65062;48.446;8.834;2023-03-14T14:58:45;96390.00;;;10.93;42.43
72336;BME280;65062;48.446;8.834;2023-03-14T15:01:46;96375.88;;;10.07;44.97
72336;BME280;65062;48.446;8.834;2023-03-14T15:04:47;96378.66;;;10.43;47.69
72336;BME280;65062;48.446;8.834;2023-03-14T15:07:48;96394.53;;;10.10;44.15
72336;BME280;65062;48.446;8.834;2023-03-14T15:10:48;96406.25;;;9.88;45.52
72336;BME280;65062;48.446;8.834;2023-03-14T15:13:49;96401.50;;;9.72;48.07
72336;BME280;65062;48.446;8.834;2023-03-14T15:16:50;96414.19;;;9.62;47.77
72336;BME280;65062;48.446;8.834;2023-03-14T15:19:50;96404.63;;;10.00;49.75
72336;BME280;65062;48.446;8.834;2023-03-14T15:22:51;96413.50;;;9.93;46.92
72336;BME280;65062;48.446;8.834;2023-03-14T15:25:51;96414.25;;;9.56;49.76
72336;BME280;65062;48.446;8.834;2023-03-14T15:28:52;96422.28;;;9.54;51.62
72336;BME280;65062;48.446;8.834;2023-03-14T15:31:53;96418.47;;;9.37;51.57
72336;BME280;65062;48.446;8.834;2023-03-14T15:34:54;96417.94;;;10.36;50.31
72336;BME280;65062;48.446;8.834;2023-03-14T15:37:54;96398.41;;;10.95;46.12
72336;BME280;65062;48.446;8.834;2023-03-14T15:40:55;96415.03;;;10.82;49.06
72336;BME280;65062;48.446;8.834;2023-03-14T15:43:55;96424.91;;;10.05;47.32
72336;BME280;65062;48.446;8.834;2023-03-14T15:46:56;96423.41;;;9.78;49.03
72336;BME280;65062;48.446;8.834;2023-03-14T15:49:56;96433.59;;;9.03;50.62
72336;BME280;65062;48.446;8.834;2023-03-14T15:52:57;96412.91;;;8.56;51.57
72336;BME280;65062;48.446;8.834;2023-03-14T15:55:57;96439.97;;;8.61;53.16
72336;BME280;65062;48.446;8.834;2023-03-14T15:58:58;96434.56;;;8.63;53.65
72336;BME280;65062;48.446;8.834;2023-03-14T16:01:58;96429.53;;;8.61;54.24
72336;BME280;65062;48.446;8.834;2023-03-14T16:04:59;96436.75;;;8.59;54.99
72336;BME280;65062;48.446;8.834;2023-03-14T16:07:59;96430.13;;;8.50;53.89
72336;BME280;65062;48.446;8.834;2023-03-14T16:11:01;96434.91;;;8.40;53.35
72336;BME280;65062;48.446;8.834;2023-03-14T16:14:01;96439.09;;;8.28;53.18
72336;BME280;65062;48.446;8.834;2023-03-14T16:17:02;96448.47;;;8.16;53.37
72336;BME280;65062;48.446;8.834;2023-03-14T16:20:03;96456.09;;;8.17;54.95
72336;BME280;65062;48.446;8.834;2023-03-14T16:23:04;96447.91;;;8.27;55.47
72336;BME280;65062;48.446;8.834;2023-03-14T16:26:13;96458.50;;;8.19;53.88
72336;BME280;65062;48.446;8.834;2023-03-14T16:29:14;96460.22;;;7.99;54.25
72336;BME280;65062;48.446;8.834;2023-03-14T16:32:16;96460.03;;;8.00;55.57
72336;BME280;65062;48.446;8.834;2023-03-14T16:35:18;96461.59;;;7.95;55.24
72336;BME280;65062;48.446;8.834;2023-03-14T16:38:18;96454.81;;;8.00;56.82
72336;BME280;65062;48.446;8.834;2023-03-14T16:41:19;96460.47;;;8.10;55.85
72336;BME280;65062;48.446;8.834;2023-03-14T16:44:20;96462.22;;;7.97;56.04
72336;BME280;65062;48.446;8.834;2023-03-14T16:47:20;96466.63;;;7.96;57.31
72336;BME280;65062;48.446;8.834;2023-03-14T16:50:21;96473.00;;;7.87;57.28
72336;BME280;65062;48.446;8.834;2023-03-14T16:53:22;96477.00;;;7.90;56.22
72336;BME280;65062;48.446;8.834;2023-03-14T16:56:22;96474.38;;;7.83;57.53